Time;durP1;ratioP1;P1;durP2;ratioP2;P2;SDS_P1;SDS_P2;PMS_P1;PMS_P2;Temp;Humidity;BMP_temperature;BMP_pressure;BME280_temperature;BME280_humidity;BME280_pressure;Samples;Min_cycle;Max_cycle;Signal;HPM_P1;HPM_P2
2022/11/12 00:00:58;;;;;;;24.23;10.75;;;;;;;10.51;73.72;98337.94;5025758;28;20053;-69
2022/11/12 00:03:25;;;;;;;19.10;9.98;;;;;;;10.53;73.16;98335.66;5024257;28;20143;-57
2022/11/12 00:05:52;;;;;;;21.08;11.15;;;;;;;10.41;73.12;98338.34;5026127;28;20483;-56
2022/11/12 00:08:19;;;;;;;16.23;9.25;;;;;;;10.46;72.86;98340.91;5024577;28;20088;-68
2022/11/12 00:10:46;;;;;;;19.42;10.48;;;;;;;10.52;73.11;98338.75;5024414;28;20599;-55
2022/11/12 00:13:13;;;;;;;32.42;14.00;;;;;;;10.53;73.12;98341.19;5025760;28;20081;-66
2022/11/12 00:15:40;;;;;;;22.55;11.63;;;;;;;10.60;73.29;98324.84;5024338;28;20161;-56
2022/11/12 00:18:06;;;;;;;19.67;11.25;;;;;;;10.72;73.76;98328.81;5025798;28;20088;-55
2022/11/12 00:20:33;;;;;;;16.98;10.20;;;;;;;10.71;72.45;98330.75;5025412;28;20085;-55
2022/11/12 00:23:00;;;;;;;25.33;12.27;;;;;;;10.62;72.50;98328.06;5025489;28;20545;-68
2022/11/12 00:25:27;;;;;;;17.70;9.98;;;;;;;10.73;73.43;98323.72;5025540;28;20511;-56
2022/11/12 00:28:00;;;;;;;25.98;12.70;;;;;;;10.77;74.62;98317.50;5025493;28;20077;-69
2022/11/12 00:30:27;;;;;;;20.10;11.27;;;;;;;10.30;74.44;98262.38;5025379;28;20128;-57
2022/11/12 00:32:54;;;;;;;24.45;11.82;;;;;;;10.70;74.91;98324.41;5025185;28;20135;-56
2022/11/12 00:35:20;;;;;;;19.60;10.75;;;;;;;10.55;74.68;98327.81;5023870;28;20107;-56
2022/11/12 00:37:52;;;;;;;24.60;11.52;;;;;;;10.46;74.94;98329.81;5025163;28;20084;-68
2022/11/12 00:40:19;;;;;;;20.92;10.23;;;;;;;10.38;74.78;98327.13;5024956;28;20148;-56
2022/11/12 00:42:45;;;;;;;18.90;10.57;;;;;;;10.45;75.43;98321.84;5025789;28;20057;-69
2022/11/12 00:45:12;;;;;;;33.92;11.90;;;;;;;9.66;75.54;98216.72;5023735;28;20103;-66
2022/11/12 00:47:39;;;;;;;25.40;11.55;;;;;;;9.72;76.61;98215.38;5025220;28;20093;-68
2022/11/12 00:50:06;;;;;;;37.10;11.65;;;;;;;9.60;75.04;98207.00;5025056;28;20085;-69
2022/11/12 00:52:32;;;;;;;38.00;12.25;;;;;;;10.26;76.10;98319.56;5024840;28;20081;-57
2022/11/12 00:54:59;;;;;;;45.67;15.90;;;;;;;10.02;76.44;98263.22;5024933;28;20063;-54
2022/11/12 00:57:26;;;;;;;16.63;10.23;;;;;;;9.69;75.82;98229.88;5025424;28;20144;-69
2022/11/12 00:59:52;;;;;;;23.35;10.95;;;;;;;10.25;76.92;98317.94;5025057;28;20081;-68
2022/11/12 01:02:19;;;;;;;16.45;10.57;;;;;;;9.61;76.17;98208.63;5023610;28;20107;-69
2022/11/12 01:04:45;;;;;;;14.82;8.90;;;;;;;10.38;77.06;98314.09;5025028;28;20089;-55
2022/11/12 01:07:14;;;;;;;15.57;9.68;;;;;;;10.08;78.22;98273.78;5025172;28;20571;-68
2022/11/12 01:09:41;;;;;;;13.75;9.35;;;;;;;10.30;79.14;98312.22;5025341;28;20052;-55
2022/11/12 01:12:08;;;;;;;18.42;10.05;;;;;;;10.29;79.03;98318.88;5023604;28;20057;-57
2022/11/12 01:14:35;;;;;;;14.85;9.80;;;;;;;10.13;79.38;98295.69;5023506;28;20103;-55
2022/11/12 01:17:01;;;;;;;13.82;9.00;;;;;;;10.25;79.94;98306.06;5025333;28;20088;-55
2022/11/12 01:19:28;;;;;;;17.60;11.27;;;;;;;10.16;82.19;98313.63;5025018;28;20085;-56
2022/11/12 01:21:54;;;;;;;16.80;10.07;;;;;;;7.66;81.59;97897.25;5024542;28;20088;-56
2022/11/12 01:24:21;;;;;;;17.30;10.13;;;;;;;10.16;81.52;98297.78;5023021;28;20054;-67
2022/11/12 01:26:47;;;;;;;22.63;12.20;;;;;;;10.04;83.36;98292.16;5024657;28;20080;-55
2022/11/12 01:29:14;;;;;;;17.23;11.52;;;;;;;10.07;83.59;98299.00;5024694;28;20141;-70
2022/11/12 01:31:41;;;;;;;18.98;12.02;;;;;;;10.06;84.17;98289.06;5022878;28;20140;-69
2022/11/12 01:34:08;;;;;;;16.92;11.38;;;;;;;10.01;84.69;98294.78;5024224;28;20164;-69
2022/11/12 01:36:37;;;;;;;15.65;10.45;;;;;;;9.86;82.46;98276.84;5024479;28;20073;-68
2022/11/12 01:39:05;;;;;;;17.88;11.00;;;;;;;10.08;83.78;98290.38;5024385;28;20076;-68
2022/11/12 01:41:34;;;;;;;17.17;9.82;;;;;;;9.94;81.68;98266.84;5023298;28;20495;-69
2022/11/12 01:44:09;;;;;;;15.20;10.85;;;;;;;9.92;82.52;98269.94;5024258;28;20516;-69
2022/11/12 01:46:45;;;;;;;22.27;11.65;;;;;;;10.02;81.03;98290.88;5024668;28;20132;-56
2022/11/12 01:49:27;;;;;;;21.50;12.27;;;;;;;9.64;80.87;98252.22;5024425;28;20057;-55
2022/11/12 01:51:56;;;;;;;20.38;12.05;;;;;;;9.98;81.34;98284.38;5024536;28;20080;-70
2022/11/12 01:54:25;;;;;;;18.95;11.25;;;;;;;9.98;81.62;98290.75;5024929;28;20517;-70
2022/11/12 01:56:53;;;;;;;17.65;9.75;;;;;;;9.41;79.19;98208.59;5024818;28;20077;-68
2022/11/12 01:59:26;;;;;;;13.15;8.95;;;;;;;9.96;80.17;98293.03;5024592;28;20136;-55
2022/11/12 02:01:53;;;;;;;14.55;9.27;;;;;;;10.08;80.15;98290.38;5024665;28;20111;-55
2022/11/12 02:04:20;;;;;;;20.42;11.32;;;;;;;10.02;79.37;98299.97;5024412;28;20657;-55
2022/11/12 02:06:49;;;;;;;16.05;9.20;;;;;;;10.19;79.34;98299.09;5025295;28;20049;-69
2022/11/12 02:09:16;;;;;;;14.35;8.63;;;;;;;10.10;77.59;98284.50;5028063;28;20156;-58
2022/11/12 02:11:43;;;;;;;15.43;9.10;;;;;;;10.20;78.26;98287.69;5028061;28;20049;-55
2022/11/12 02:14:09;;;;;;;17.42;9.38;;;;;;;10.12;78.47;98298.81;5026725;28;20061;-67
2022/11/12 02:16:39;;;;;;;15.30;7.60;;;;;;;9.81;78.78;98279.78;5027932;28;20089;-69
2022/11/12 02:19:11;;;;;;;14.57;8.90;;;;;;;9.82;79.81;98264.78;5027965;28;20045;-55
2022/11/12 02:21:38;;;;;;;16.92;8.98;;;;;;;9.46;80.45;98228.56;5027965;28;20135;-66
2022/11/12 02:24:24;;;;;;;17.30;9.85;;;;;;;9.83;82.87;98283.00;5027741;28;20560;-55
2022/11/12 02:26:54;;;;;;;16.13;8.75;;;;;;;9.65;82.68;98287.03;5027415;28;20614;-68
2022/11/12 02:29:21;;;;;;;18.02;9.52;;;;;;;9.33;83.67;98224.09;5027803;28;20604;-54
2022/11/12 02:31:48;;;;;;;16.08;9.30;;;;;;;9.62;83.74;98276.66;5026677;28;20084;-55
2022/11/12 02:34:15;;;;;;;17.63;8.40;;;;;;;9.52;84.80;98281.72;5027616;28;20477;-69
2022/11/12 02:36:41;;;;;;;14.73;7.80;;;;;;;9.43;85.05;98270.72;5027358;28;20080;-70
2022/11/12 02:39:08;;;;;;;13.77;8.63;;;;;;;9.61;85.52;98286.06;5027934;28;20144;-56
2022/11/12 02:41:34;;;;;;;12.48;7.90;;;;;;;9.51;86.48;98286.47;5026343;28;20069;-55
2022/11/12 02:44:01;;;;;;;14.18;7.85;;;;;;;9.39;85.76;98288.31;5027579;28;20080;-56
2022/11/12 02:46:28;;;;;;;4.75;3.72;;;;;;;9.43;78.66;98294.81;5027254;28;20140;-55
2022/11/12 02:48:54;;;;;;;5.00;3.28;;;;;;;9.39;77.99;98289.13;5025909;28;20088;-56
2022/11/12 02:51:21;;;;;;;5.00;2.92;;;;;;;8.73;75.72;98212.47;5027462;28;20151;-55
2022/11/12 02:53:47;;;;;;;7.70;3.50;;;;;;;9.23;76.66;98291.63;5025689;28;20053;-68
2022/11/12 02:56:14;;;;;;;4.18;2.83;;;;;;;9.16;75.31;98290.53;5027412;28;20088;-55
2022/11/12 02:58:40;;;;;;;8.88;3.55;;;;;;;8.62;73.81;98213.97;5027315;28;20055;-56
2022/11/12 03:01:07;;;;;;;8.82;4.10;;;;;;;9.28;74.67;98293.38;5027090;28;20050;-69
2022/11/12 03:03:34;;;;;;;5.70;2.75;;;;;;;9.41;75.05;98295.13;5027083;28;20576;-55
2022/11/12 03:06:01;;;;;;;3.88;2.85;;;;;;;9.36;74.27;98289.78;5026929;28;20128;-68
2022/11/12 03:08:27;;;;;;;6.03;2.88;;;;;;;8.99;74.34;98240.84;5027146;28;20061;-68
2022/11/12 03:10:54;;;;;;;13.07;4.68;;;;;;;9.41;74.27;98286.84;5026900;28;20122;-57
2022/11/12 03:13:21;;;;;;;15.68;5.63;;;;;;;9.45;74.18;98293.34;5026907;28;20136;-55
2022/11/12 03:15:48;;;;;;;6.00;2.80;;;;;;;9.30;74.66;98296.66;5025494;28;20053;-67
2022/11/12 03:18:14;;;;;;;2.53;1.67;;;;;;;8.84;74.37;98249.66;5027047;28;20104;-54
2022/11/12 03:20:41;;;;;;;2.63;2.17;;;;;;;7.09;74.54;97955.75;5026838;28;20139;-68
2022/11/12 03:23:09;;;;;;;3.45;2.22;;;;;;;9.23;73.67;98303.84;5025815;28;20093;-55
2022/11/12 03:25:36;;;;;;;3.28;2.25;;;;;;;9.28;74.49;98309.97;5025745;28;20136;-55
2022/11/12 03:28:06;;;;;;;3.47;2.40;;;;;;;9.27;72.57;98297.31;5027047;28;20081;-68
2022/11/12 03:30:36;;;;;;;2.67;1.73;;;;;;;9.21;71.30;98316.03;5027041;28;20168;-55
2022/11/12 03:33:04;;;;;;;4.68;2.33;;;;;;;9.16;71.00;98312.63;5026587;28;20119;-67
2022/11/12 03:35:31;;;;;;;4.70;2.70;;;;;;;9.21;71.25;98315.22;5026499;28;20535;-70
2022/11/12 03:37:58;;;;;;;4.80;2.70;;;;;;;9.32;71.07;98322.03;5025255;28;20053;-70
2022/11/12 03:40:25;;;;;;;20.73;8.68;;;;;;;9.32;69.86;98310.97;5026412;28;20119;-56
2022/11/12 03:42:52;;;;;;;7.57;3.42;;;;;;;9.47;69.61;98306.84;5026947;28;20067;-70
2022/11/12 03:45:20;;;;;;;6.85;4.05;;;;;;;9.19;69.86;98268.56;5025089;28;20145;-70
2022/11/12 03:47:49;;;;;;;4.13;2.60;;;;;;;9.32;69.60;98290.78;5026551;28;20152;-56
2022/11/12 03:50:17;;;;;;;5.47;3.05;;;;;;;9.64;69.70;98307.53;5026410;28;20584;-70
2022/11/12 03:52:52;;;;;;;4.10;2.67;;;;;;;9.59;70.23;98282.03;5026031;28;20263;-57
2022/11/12 03:55:21;;;;;;;4.00;2.83;;;;;;;9.84;68.97;98328.13;5006430;28;20081;-69
2022/11/12 03:57:49;;;;;;;3.92;2.60;;;;;;;9.58;68.03;98248.03;5006271;28;20600;-55
2022/11/12 04:00:17;;;;;;;5.43;2.83;;;;;;;10.10;70.18;98315.75;5006623;28;20085;-58
2022/11/12 04:02:44;;;;;;;3.22;2.90;;;;;;;10.13;69.84;98309.53;5005192;28;20161;-55
2022/11/12 04:10:43;;;;;;;5.53;3.95;;;;;;;10.26;69.32;98302.13;5006232;28;20053;-68
2022/11/12 04:13:28;;;;;;;10.27;6.43;;;;;;;10.22;68.72;98293.69;5006188;28;20060;-55
2022/11/12 04:21:55;;;;;;;10.23;6.55;;;;;;;10.43;70.55;98304.78;5005860;28;20082;-59
2022/11/12 04:27:17;;;;;;;4.78;3.58;;;;;;;10.42;70.01;98295.66;5005840;28;20497;-68
2022/11/12 04:32:32;;;;;;;5.25;3.20;;;;;;;9.81;71.74;98235.50;5006152;28;20089;-68
2022/11/12 04:34:59;;;;;;;4.10;3.28;;;;;;;9.99;72.42;98286.81;5005407;28;20672;-55
2022/11/12 04:37:29;;;;;;;6.20;4.30;;;;;;;9.97;72.66;98283.59;5005356;28;20068;-57
2022/11/12 04:44:58;;;;;;;5.32;3.58;;;;;;;9.46;74.77;98260.94;5005969;28;20137;-69
2022/11/12 04:45:32;;;;;;;4.05;3.25;;;;;;;9.10;75.65;98255.91;5005909;28;20078;-69
2022/11/12 04:47:58;;;;;;;5.75;3.60;;;;;;;9.46;76.09;98319.84;5005733;28;20085;-56
2022/11/12 04:50:25;;;;;;;5.28;3.67;;;;;;;9.51;75.97;98325.19;5005398;28;20539;-59
2022/11/12 04:52:51;;;;;;;5.53;3.50;;;;;;;9.29;77.42;98327.38;5004420;28;20141;-57
2022/11/12 04:55:18;;;;;;;6.00;3.70;;;;;;;8.95;77.85;98273.03;5025066;28;20081;-69
2022/11/12 04:57:44;;;;;;;7.05;4.28;;;;;;;9.36;79.52;98328.50;5023648;28;20088;-67
2022/11/12 05:00:12;;;;;;;7.22;3.65;;;;;;;9.33;78.54;98329.16;5025223;28;20080;-55
2022/11/12 05:02:38;;;;;;;5.38;3.75;;;;;;;9.25;79.42;98327.22;5025433;28;20053;-55
2022/11/12 05:05:05;;;;;;;6.07;4.20;;;;;;;9.19;81.35;98329.38;5025127;28;20085;-68
2022/11/12 05:07:32;;;;;;;5.53;3.60;;;;;;;9.21;81.27;98326.28;5025689;28;20162;-55
2022/11/12 05:09:59;;;;;;;5.60;4.22;;;;;;;8.58;81.46;98235.09;5025350;28;20088;-70
2022/11/12 05:12:26;;;;;;;6.13;3.90;;;;;;;9.21;82.99;98329.06;5025073;28;20115;-55
2022/11/12 05:14:52;;;;;;;6.95;3.78;;;;;;;9.26;82.11;98328.88;5025377;28;20049;-55
2022/11/12 05:17:19;;;;;;;5.60;4.10;;;;;;;9.29;82.43;98328.22;5024818;28;20077;-57
2022/11/12 05:19:46;;;;;;;6.15;3.80;;;;;;;9.26;80.69;98334.41;5024710;28;20140;-69
2022/11/12 05:22:12;;;;;;;5.35;3.15;;;;;;;9.25;79.51;98327.22;5024186;28;20077;-55
2022/11/12 05:24:59;;;;;;;5.03;3.47;;;;;;;9.25;80.49;98327.22;5023312;28;20049;-58
2022/11/12 05:27:25;;;;;;;6.40;3.67;;;;;;;8.90;79.45;98303.59;5024213;28;20136;-70
2022/11/12 05:29:52;;;;;;;6.68;4.15;;;;;;;9.11;78.65;98343.22;5023264;28;20590;-57
2022/11/12 05:32:19;;;;;;;5.40;3.30;;;;;;;9.17;78.92;98336.38;5023063;28;20046;-55
2022/11/12 05:34:46;;;;;;;4.35;2.90;;;;;;;8.47;77.97;98211.75;5024191;28;20088;-55
2022/11/12 05:37:13;;;;;;;5.68;3.88;;;;;;;9.31;79.60;98348.03;5024322;28;20140;-70
2022/11/12 05:39:40;;;;;;;8.02;4.18;;;;;;;9.31;80.30;98348.03;5024534;28;20487;-71
2022/11/12 05:42:07;;;;;;;6.22;3.83;;;;;;;9.08;79.49;98332.81;5025756;28;20081;-58
2022/11/12 05:44:39;;;;;;;4.97;3.50;;;;;;;9.03;80.00;98352.34;5028873;28;20063;-71
2022/11/12 05:47:06;;;;;;;5.68;3.92;;;;;;;9.00;81.38;98364.06;5028766;28;20296;-71
2022/11/12 05:49:32;;;;;;;6.18;3.85;;;;;;;8.85;81.45;98373.66;5028970;28;20320;-71
2022/11/12 05:51:59;;;;;;;7.70;4.10;;;;;;;8.75;83.62;98367.66;5028566;28;20077;-71
2022/11/12 05:54:26;;;;;;;6.68;3.80;;;;;;;8.67;84.97;98365.72;5028386;28;20116;-71
2022/11/12 05:56:52;;;;;;;4.82;3.17;;;;;;;8.43;82.95;98349.63;5028178;28;20085;-71
2022/11/12 05:59:19;;;;;;;6.28;3.83;;;;;;;8.34;84.48;98350.78;5027807;28;20498;-71
2022/11/12 06:01:46;;;;;;;6.40;4.05;;;;;;;8.56;83.21;98381.81;5026621;28;20140;-56
2022/11/12 06:04:14;;;;;;;11.43;4.47;;;;;;;8.52;83.94;98385.56;5027922;28;20100;-57
2022/11/12 06:06:41;;;;;;;10.65;4.97;;;;;;;8.61;84.53;98383.59;5027793;28;20077;-55
2022/11/12 06:09:09;;;;;;;10.75;4.95;;;;;;;8.59;84.67;98396.91;5028229;28;20486;-56
2022/11/12 06:11:36;;;;;;;6.30;3.63;;;;;;;8.53;82.61;98392.69;5028024;28;20056;-56
2022/11/12 06:14:03;;;;;;;5.28;3.35;;;;;;;8.50;82.79;98394.16;5026712;28;20143;-55
2022/11/12 06:16:31;;;;;;;5.57;3.70;;;;;;;8.46;85.23;98403.38;5027885;28;20144;-56
2022/11/12 06:18:58;;;;;;;9.95;4.50;;;;;;;8.47;85.05;98405.03;5027927;28;20111;-54
2022/11/12 06:21:26;;;;;;;7.50;3.97;;;;;;;8.32;85.32;98381.47;5028034;28;20057;-56
2022/11/12 06:23:57;;;;;;;5.85;3.90;;;;;;;8.39;87.00;98414.13;5027874;28;20057;-58
2022/11/12 06:26:26;;;;;;;7.03;3.78;;;;;;;8.36;86.45;98420.28;5026338;28;20586;-57
2022/11/12 06:28:54;;;;;;;7.10;3.90;;;;;;;8.35;88.08;98415.88;5027673;28;20488;-68
2022/11/12 06:31:21;;;;;;;6.60;4.35;;;;;;;8.44;88.76;98423.03;5027681;28;20143;-68
2022/11/12 06:33:48;;;;;;;6.43;4.22;;;;;;;8.55;90.39;98423.56;5026233;28;20438;-59
2022/11/12 06:36:17;;;;;;;6.40;4.05;;;;;;;8.49;87.86;98422.06;5027441;28;20042;-56
2022/11/12 06:38:44;;;;;;;7.60;3.83;;;;;;;8.46;88.33;98426.31;5027522;28;20690;-55
2022/11/12 06:41:12;;;;;;;5.22;3.67;;;;;;;8.41;90.21;98425.66;5026247;28;20362;-55
2022/11/12 06:43:39;;;;;;;4.63;3.80;;;;;;;7.50;92.54;98286.81;5027670;28;20053;-56
2022/11/12 06:46:12;;;;;;;5.95;4.13;;;;;;;8.44;93.17;98422.25;5027415;28;20131;-55
2022/11/12 06:48:39;;;;;;;6.57;4.10;;;;;;;8.49;94.90;98424.81;5027071;28;20177;-58
2022/11/12 06:51:14;;;;;;;6.75;4.10;;;;;;;8.53;94.63;98425.81;5027325;28;20694;-57
2022/11/12 06:53:41;;;;;;;8.55;4.53;;;;;;;8.56;93.26;98422.41;5027141;28;20080;-69
2022/11/12 06:56:07;;;;;;;5.57;3.60;;;;;;;8.04;93.05;98351.66;5026705;28;20081;-65
2022/11/12 06:58:35;;;;;;;7.03;4.50;;;;;;;8.62;94.16;98430.22;5023354;28;20141;-57
2022/11/12 07:01:11;;;;;;;7.78;5.07;;;;;;;8.56;92.29;98422.41;5026207;28;20546;-55
2022/11/12 07:03:40;;;;;;;5.47;3.30;;;;;;;8.63;93.78;98420.00;5018446;28;20052;-57
2022/11/12 07:06:13;;;;;;;6.57;3.38;;;;;;;7.89;93.36;98308.00;5025209;28;20678;-56
2022/11/12 07:08:41;;;;;;;;;;;;;;;8.35;92.01;98413.13;5027522;28;20054;-63
2022/11/12 07:11:08;;;;;;;8.45;2.83;;;;;;;7.24;93.57;98245.38;5025162;28;19929;-56
2022/11/12 07:13:35;;;;;;;40.65;22.33;;;;;;;8.01;96.66;98357.84;5025865;28;20092;-56
2022/11/12 07:16:03;;;;;;;9.88;5.22;;;;;;;7.68;96.46;98327.09;5024538;28;20139;-59
2022/11/12 07:18:30;;;;;;;5.60;3.80;;;;;;;7.87;94.93;98354.41;5026093;28;20049;-54
2022/11/12 07:20:59;;;;;;;5.07;3.40;;;;;;;8.19;98.08;98423.78;5026091;28;20580;-55
2022/11/12 07:23:26;;;;;;;6.88;3.90;;;;;;;8.26;99.13;98420.59;5026511;28;20080;-54
2022/11/12 07:25:58;;;;;;;12.82;4.45;;;;;;;8.20;98.44;98421.84;5026302;28;20136;-57
2022/11/12 07:28:25;;;;;;;5.78;3.88;;;;;;;8.18;98.57;98413.88;5026255;28;20543;-66
2022/11/12 07:30:59;;;;;;;7.28;4.15;;;;;;;7.08;99.12;98235.13;5026465;28;20440;-59
2022/11/12 07:33:26;;;;;;;8.65;3.97;;;;;;;8.23;100.00;98440.53;5024637;28;20049;-56
2022/11/12 07:36:13;;;;;;;7.82;4.32;;;;;;;8.31;100.00;98421.25;5025265;28;20053;-64
2022/11/12 07:38:41;;;;;;;7.90;4.55;;;;;;;8.45;100.00;98421.09;5026294;28;20451;-66
2022/11/12 07:41:14;;;;;;;7.93;5.18;;;;;;;8.50;100.00;98415.44;5023871;28;20053;-56
2022/11/12 07:43:43;;;;;;;14.13;6.07;;;;;;;8.66;100.00;98427.63;5025055;28;20062;-66
2022/11/12 07:46:13;;;;;;;10.25;5.70;;;;;;;8.61;100.00;98367.03;5026120;28;20084;-57
2022/11/12 07:48:40;;;;;;;13.23;7.65;;;;;;;8.67;100.00;98365.72;5025987;28;20149;-53
2022/11/12 07:51:13;;;;;;;19.17;10.15;;;;;;;9.13;100.00;98429.41;5025158;28;20076;-64
2022/11/12 07:53:40;;;;;;;15.35;9.60;;;;;;;8.67;100.00;98333.38;5005914;28;20139;-63
2022/11/12 07:56:10;;;;;;;15.05;9.45;;;;;;;9.27;100.00;98424.50;5021372;28;20137;-59
2022/11/12 07:58:37;;;;;;;14.93;9.25;;;;;;;9.35;100.00;98429.19;5007384;28;20140;-57
2022/11/12 08:01:10;;;;;;;22.70;13.07;;;;;;;7.87;100.00;98199.91;5025332;28;20538;-67
2022/11/12 08:03:37;;;;;;;38.63;17.70;;;;;;;9.35;100.00;98409.84;5024480;28;20132;-64
2022/11/12 08:06:04;;;;;;;28.15;15.13;;;;;;;9.42;100.00;98412.91;5025454;28;20073;-53
2022/11/12 08:08:30;;;;;;;27.48;15.65;;;;;;;9.47;100.00;98407.19;5025616;28;20089;-69
2022/11/12 08:10:58;;;;;;;35.90;19.85;;;;;;;9.18;100.00;98387.78;5025290;28;20112;-54
2022/11/12 08:13:25;;;;;;;39.58;21.95;;;;;;;9.42;100.00;98415.66;5025155;28;20128;-67
2022/11/12 08:15:52;;;;;;;33.25;20.55;;;;;;;7.89;100.00;98161.78;5025734;28;20072;-56
2022/11/12 08:18:18;;;;;;;39.95;22.77;;;;;;;9.50;100.00;98417.59;5025606;28;20156;-66
2022/11/12 08:20:45;;;;;;;39.25;21.92;;;;;;;9.00;100.00;98358.53;5025121;28;20049;-60
2022/11/12 08:23:11;;;;;;;31.85;17.58;;;;;;;9.52;100.00;98398.72;5023699;28;20475;-67
2022/11/12 08:25:38;;;;;;;33.78;19.17;;;;;;;9.68;100.00;98408.13;5011344;28;20132;-66
2022/11/12 08:28:04;;;;;;;39.85;20.77;;;;;;;9.33;100.00;98351.28;5025186;28;20088;-55
2022/11/12 08:30:31;;;;;;;34.10;18.10;;;;;;;9.78;100.00;98418.81;5025328;28;20080;-65
2022/11/12 08:33:00;;;;;;;39.83;24.10;;;;;;;9.43;100.00;98362.00;5023663;28;20148;-55
2022/11/12 08:35:28;;;;;;;27.83;17.23;;;;;;;9.91;100.00;98412.22;5025047;28;20049;-66
2022/11/12 08:38:02;;;;;;;30.50;17.40;;;;;;;10.06;100.00;98414.47;5025189;28;20053;-54
2022/11/12 08:40:31;;;;;;;23.13;14.40;;;;;;;10.23;100.00;98419.94;5025068;28;20140;-66
2022/11/12 08:43:04;;;;;;;19.48;13.93;;;;;;;10.27;100.00;98412.59;5024834;28;20081;-55
2022/11/12 08:45:33;;;;;;;22.73;14.15;;;;;;;10.29;100.00;98410.28;5025013;28;20091;-66
2022/11/12 08:48:20;;;;;;;18.90;12.32;;;;;;;10.51;99.66;98420.25;5025335;28;20148;-54
2022/11/12 08:50:46;;;;;;;19.20;10.57;;;;;;;10.00;99.94;98305.06;5024783;28;20156;-65
2022/11/12 08:53:13;;;;;;;10.85;6.82;;;;;;;10.86;94.38;98420.81;5024758;28;20057;-65
2022/11/12 08:55:40;;;;;;;10.20;7.43;;;;;;;10.90;88.96;98422.56;5023897;28;20057;-57
2022/11/12 08:58:07;;;;;;;9.88;7.20;;;;;;;10.93;89.53;98432.97;5022339;28;20053;-65
2022/11/12 09:00:42;;;;;;;8.27;5.45;;;;;;;11.04;88.48;98422.28;5021289;28;20046;-55
2022/11/12 09:03:17;;;;;;;15.38;10.05;;;;;;;10.15;89.21;98274.03;5021354;28;20364;-66
2022/11/12 09:05:44;;;;;;;18.42;11.20;;;;;;;11.11;90.27;98417.00;5024723;28;20139;-66
2022/11/12 09:08:14;;;;;;;18.70;11.77;;;;;;;10.75;92.30;98347.53;5025197;28;20123;-56
2022/11/12 09:10:41;;;;;;;20.67;12.60;;;;;;;11.14;93.66;98435.72;5023693;28;20155;-66
2022/11/12 09:13:08;;;;;;;25.58;13.45;;;;;;;10.99;95.06;98425.25;5021748;28;20123;-55
2022/11/12 09:15:34;;;;;;;14.55;8.88;;;;;;;10.87;95.87;98422.41;5022154;28;20088;-66
2022/11/12 09:18:06;;;;;;;13.15;7.70;;;;;;;10.60;98.08;98396.88;5022696;28;20064;-66
2022/11/12 09:20:33;;;;;;;15.30;9.18;;;;;;;10.19;99.71;98347.00;5021500;28;20077;-66
2022/11/12 09:23:03;;;;;;;18.50;10.90;;;;;;;10.55;98.32;98399.84;5022149;28;20473;-55
2022/11/12 09:25:30;;;;;;;15.55;10.43;;;;;;;10.56;98.71;98417.25;5021408;28;20107;-55
2022/11/12 09:27:56;;;;;;;11.77;8.55;;;;;;;10.49;98.66;98428.91;5023689;28;20061;-67
2022/11/12 09:30:23;;;;;;;12.13;7.97;;;;;;;10.47;99.95;98414.56;5024487;28;20050;-66
2022/11/12 09:32:56;;;;;;;9.27;6.18;;;;;;;10.27;97.18;98415.34;5024442;28;20488;-67
2022/11/12 09:35:22;;;;;;;13.17;8.00;;;;;;;10.04;97.78;98372.44;5024121;28;20143;-67
2022/11/12 09:37:49;;;;;;;14.15;9.65;;;;;;;10.22;100.00;98407.25;5024374;28;20136;-55
2022/11/12 09:40:18;;;;;;;14.00;8.98;;;;;;;10.24;100.00;98421.53;5023992;28;20593;-66
2022/11/12 09:42:49;;;;;;;11.02;6.45;;;;;;;10.34;96.94;98410.09;5023540;28;20337;-67
2022/11/12 09:45:28;;;;;;;12.35;8.05;;;;;;;9.93;95.71;98315.84;5023201;28;20160;-54
2022/11/12 09:47:59;;;;;;;16.70;8.77;;;;;;;10.58;95.67;98404.72;5024585;28;20133;-56
2022/11/12 09:50:32;;;;;;;17.75;10.70;;;;;;;10.77;95.17;98390.38;5023133;28;20127;-66
2022/11/12 09:53:22;;;;;;;29.58;18.05;;;;;;;11.13;98.07;98395.28;5023945;28;20119;-65
2022/11/12 09:55:49;;;;;;;20.05;13.88;;;;;;;11.03;96.72;98393.75;5024324;28;20053;-54
2022/11/12 09:58:18;;;;;;;24.58;14.07;;;;;;;11.02;96.04;98424.59;5024217;28;20085;-55
2022/11/12 10:00:57;;;;;;;15.88;11.73;;;;;;;10.98;96.69;98402.28;5024110;28;20080;-55
2022/11/12 10:03:51;;;;;;;52.90;20.85;;;;;;;10.58;96.44;98359.56;5024052;28;20089;-54
2022/11/12 10:06:20;;;;;;;;;;;;;;;10.86;92.90;98404.97;5024315;28;20132;-56
2022/11/12 10:09:08;;;;;;;22.30;10.23;;;;;;;9.97;91.07;98302.97;5023593;28;19974;-57
2022/11/12 10:12:31;;;;;;;17.60;8.85;;;;;;;10.99;91.71;98403.06;5023588;28;20130;-55
2022/11/12 10:16:41;;;;;;;13.50;7.40;;;;;;;11.35;92.29;98398.47;5023909;28;20104;-57
2022/11/12 10:17:59;;;;;;;27.80;12.80;;;;;;;11.49;87.95;98412.06;5024078;28;20096;-66
2022/11/12 10:20:49;;;;;;;63.33;26.15;;;;;;;11.23;91.73;98320.78;5023922;28;20111;-57
2022/11/12 10:23:28;;;;;;;24.38;13.48;;;;;;;11.49;91.54;98370.44;5023201;28;20104;-63
2022/11/12 10:25:59;;;;;;;35.40;17.30;;;;;;;11.64;93.05;98397.53;5022943;28;20045;-54
2022/11/12 10:28:47;;;;;;;14.85;9.70;;;;;;;11.82;93.62;98404.50;5025847;28;20057;-64
2022/11/12 10:31:17;;;;;;;58.50;23.52;;;;;;;11.85;93.38;98404.63;5022665;28;20531;-70
2022/11/12 10:33:44;;;;;;;79.75;36.50;;;;;;;11.72;94.25;98399.41;5027400;28;20147;-57
2022/11/12 10:36:23;;;;;;;35.05;17.45;;;;;;;11.72;94.69;98416.06;5025789;28;20053;-65
2022/11/12 10:38:53;;;;;;;50.40;23.98;;;;;;;11.55;95.54;98419.00;5027603;28;20168;-62
2022/11/12 10:41:24;;;;;;;38.35;21.20;;;;;;;10.78;97.91;98308.03;5025127;28;20045;-62
2022/11/12 10:44:05;;;;;;;28.60;17.23;;;;;;;11.09;97.77;98370.19;5030425;28;20131;-65
2022/11/12 10:46:35;;;;;;;17.13;10.80;;;;;;;11.31;97.85;98422.50;5026227;28;20085;-63
2022/11/12 10:49:21;;;;;;;39.10;21.10;;;;;;;11.08;100.00;98403.81;5026431;28;20144;-56
2022/11/12 10:51:56;;;;;;;13.35;9.13;;;;;;;10.96;100.00;98387.09;5026142;28;20592;-56
2022/11/12 10:54:25;;;;;;;13.73;9.50;;;;;;;11.12;100.00;98416.66;5026438;28;20093;-62
2022/11/12 10:56:53;;;;;;;18.30;10.77;;;;;;;11.20;100.00;98403.84;5025076;28;20092;-62
2022/11/12 10:59:24;;;;;;;7.40;5.32;;;;;;;10.91;98.15;98412.28;5025210;28;20060;-55
2022/11/12 11:01:59;;;;;;;8.55;5.78;;;;;;;11.00;99.33;98411.03;5024960;28;20050;-62
2022/11/12 11:04:36;;;;;;;14.73;7.88;;;;;;;10.81;97.71;98368.34;5040560;28;20056;-55
2022/11/12 11:07:25;;;;;;;14.43;7.68;;;;;;;11.04;100.00;98405.63;5025568;28;20141;-58
2022/11/12 11:09:58;;;;;;;11.48;7.38;;;;;;;11.07;100.00;98413.25;5025558;28;20136;-62
2022/11/12 11:12:31;;;;;;;12.48;8.40;;;;;;;10.91;100.00;98406.75;5042228;28;20132;-56
2022/11/12 11:15:13;;;;;;;16.98;9.50;;;;;;;10.94;100.00;98403.28;5027055;28;20130;-55
2022/11/12 11:17:39;;;;;;;16.45;10.50;;;;;;;10.96;100.00;98412.06;5042173;28;20057;-61
2022/11/12 11:20:42;;;;;;;14.20;10.45;;;;;;;10.98;100.00;98413.38;5026698;28;20096;-61
2022/11/12 11:23:19;;;;;;;10.40;7.57;;;;;;;10.88;100.00;98407.41;5025412;28;20081;-53
2022/11/12 11:25:51;;;;;;;10.57;7.95;;;;;;;10.90;100.00;98399.56;5026054;28;20132;-61
2022/11/12 11:28:45;;;;;;;17.25;12.25;;;;;;;10.94;100.00;98406.06;5027235;28;20140;-54
2022/11/12 11:31:23;;;;;;;23.92;13.80;;;;;;;10.73;100.00;98390.22;5026695;28;20107;-61
2022/11/12 11:34:09;;;;;;;14.68;10.65;;;;;;;10.76;100.00;98399.03;5026746;28;20527;-54
2022/11/12 11:36:39;;;;;;;15.20;10.40;;;;;;;10.81;100.00;98401.59;5026554;28;20549;-54
2022/11/12 11:39:23;;;;;;;11.68;8.82;;;;;;;10.89;100.00;98397.94;5025524;28;20432;-57
2022/11/12 11:42:05;;;;;;;12.57;9.45;;;;;;;10.93;100.00;98398.88;5041498;28;20649;-61
2022/11/12 11:44:58;;;;;;;19.48;13.07;;;;;;;10.81;100.00;98402.44;5026717;28;20176;-54
2022/11/12 11:47:50;;;;;;;19.80;12.90;;;;;;;11.02;100.00;98405.19;5026375;28;20164;-54
2022/11/12 11:50:33;;;;;;;23.75;17.60;;;;;;;10.56;100.00;98318.34;5026112;28;20560;-54
2022/11/12 11:53:20;;;;;;;19.30;14.57;;;;;;;11.15;100.00;98399.34;5026081;28;20060;-55
2022/11/12 11:55:55;;;;;;;20.35;14.43;;;;;;;11.09;100.00;98391.56;5025966;28;20492;-61
2022/11/12 11:58:40;;;;;;;15.55;11.70;;;;;;;11.01;100.00;98395.22;5025771;28;20140;-55
2022/11/12 12:01:23;;;;;;;19.05;12.90;;;;;;;10.97;100.00;98394.28;5025772;28;20564;-62
2022/11/12 12:04:14;;;;;;;25.75;16.40;;;;;;;11.05;100.00;98407.28;5026199;28;20115;-62